Nicut, West Virginia
Current Conditions -  °F | °C
As of 3:55 AM on Wednesday 22 Oct 2014 (Local Time) from KW22 Reporting Station
Haze Haze  
Wind Chill: 39°   Ceiling: 300
Heat Index: 43°   Visibility: 4mi
Dew Point: 43°   Wind: 7mph
Humidity: 100%   Direction: NA
Pressure: 30.03"   Gusts: 13mph
Location:  38.7375°N, 80.9417°W
Report Text: KW22 220755Z AUTO VRB06G11KT 4SM BR OVC003 06/06 A3003 RMK AO2
Loading
Personal Weather Stations






























Interactive Weather Map
Tropical Storm Tracking
New forecast layout! Learn more

10-Day Weather Forecast

Advertisements
Track Severe Weather on mobile